Time;durP1;ratioP1;P1;durP2;ratioP2;P2;SDS_P1;SDS_P2;PMS_P1;PMS_P2;Temp;Humidity;BMP_temperature;BMP_pressure;BME280_temperature;BME280_humidity;BME280_pressure;Samples;Min_cycle;Max_cycle;Signal;HPM_P1;HPM_P2
2022/03/23 00:01:07;;;;;;;74.97;28.67;;;1.80;55.00;;;;;;5128215;27;20019;-83
2022/03/23 00:03:35;;;;;;;84.75;31.67;;;1.80;55.20;;;;;;5126538;27;20021;-84
2022/03/23 00:06:01;;;;;;;81.17;30.50;;;1.80;55.20;;;;;;5123357;27;20432;-82
2022/03/23 00:08:26;;;;;;;80.60;31.73;;;1.70;55.40;;;;;;5127839;27;20364;-82
2022/03/23 00:10:52;;;;;;;78.75;31.48;;;1.60;55.50;;;;;;5126038;27;20038;-81
2022/03/23 00:13:18;;;;;;;76.68;30.10;;;1.60;55.60;;;;;;5129030;27;20030;-82
2022/03/23 00:15:43;;;;;;;80.95;30.52;;;1.50;55.70;;;;;;5150424;27;20079;-82
2022/03/23 00:18:09;;;;;;;88.70;33.17;;;1.40;55.90;;;;;;5127264;27;20027;-82
2022/03/23 00:20:35;;;;;;;71.80;30.75;;;1.40;55.90;;;;;;5127810;27;20044;-82
2022/03/23 00:23:00;;;;;;;;;;;1.40;56.00;;;;;;5127979;27;20085;-82
2022/03/23 00:25:26;;;;;;;65.10;24.33;;;1.30;56.00;;;;;;5130401;27;19919;-82
2022/03/23 00:27:52;;;;;;;67.95;24.42;;;1.30;55.70;;;;;;5122429;27;20417;-83
2022/03/23 00:30:17;;;;;;;53.38;22.35;;;1.30;55.90;;;;;;5128560;27;20030;-82
2022/03/23 00:32:43;;;;;;;63.50;23.55;;;1.20;56.10;;;;;;5121077;27;20142;-82
2022/03/23 00:35:09;;;;;;;66.50;25.80;;;1.20;56.30;;;;;;5108772;27;20122;-82
2022/03/23 00:37:35;;;;;;;;;;;1.10;56.50;;;;;;5124291;27;20480;-82
2022/03/23 00:40:01;;;;;;;63.13;22.97;;;1.10;56.50;;;;;;5122954;27;19950;-81
2022/03/23 00:42:26;;;;;;;52.58;22.95;;;1.10;56.10;;;;;;5122495;28;20031;-82
2022/03/23 00:44:52;;;;;;;55.28;23.15;;;1.00;56.20;;;;;;5125850;27;20007;-82
2022/03/23 00:47:18;;;;;;;61.33;21.35;;;0.90;56.40;;;;;;5127807;28;20536;-82
2022/03/23 00:49:44;;;;;;;53.78;22.85;;;0.90;56.60;;;;;;5127383;27;20023;-82
2022/03/23 00:52:11;;;;;;;59.37;22.37;;;0.80;56.70;;;;;;5144714;27;20034;-82
2022/03/23 00:54:37;;;;;;;55.57;21.80;;;0.80;56.80;;;;;;5122223;27;20024;-82
2022/03/23 00:57:05;;;;;;;51.43;21.50;;;0.70;57.00;;;;;;5127902;27;20030;-82
2022/03/23 00:59:31;;;;;;;59.77;24.80;;;0.70;57.10;;;;;;5124266;28;20106;-81
2022/03/23 01:01:58;;;;;;;62.67;23.48;;;0.70;57.20;;;;;;5126033;27;20132;-81
2022/03/23 01:04:24;;;;;;;60.00;24.30;;;0.60;57.30;;;;;;5128768;28;20423;-83
2022/03/23 01:06:52;;;;;;;65.43;24.47;;;0.60;57.50;;;;;;5128505;27;20050;-83
2022/03/23 01:09:22;;;;;;;61.27;23.00;;;0.50;57.60;;;;;;5126047;27;20027;-82
2022/03/23 01:11:52;;;;;;;53.57;21.93;;;0.50;57.60;;;;;;5147170;27;20023;-81
2022/03/23 01:14:21;;;;;;;54.60;22.53;;;0.40;57.70;;;;;;5128133;27;20022;-82
2022/03/23 01:16:47;;;;;;;55.50;21.23;;;0.40;57.80;;;;;;5129141;27;20083;-82
2022/03/23 01:19:13;;;;;;;48.95;22.10;;;0.40;57.90;;;;;;5131254;27;20027;-82
2022/03/23 01:21:40;;;;;;;53.67;21.37;;;0.30;57.90;;;;;;5131413;27;20019;-81
2022/03/23 01:24:06;;;;;;;54.37;20.73;;;0.30;58.00;;;;;;5130002;27;20098;-82
2022/03/23 01:26:32;;;;;;;48.77;19.57;;;0.30;58.10;;;;;;5129608;27;20080;-82
2022/03/23 01:28:58;;;;;;;53.57;20.70;;;0.30;58.20;;;;;;5133120;27;20382;-82
2022/03/23 01:31:24;;;;;;;49.40;19.67;;;0.20;58.30;;;;;;5134846;27;20023;-82
2022/03/23 01:33:50;;;;;;;54.40;18.50;;;0.20;58.40;;;;;;5131081;27;20034;-83
2022/03/23 01:36:15;;;;;;;45.25;18.75;;;0.20;58.40;;;;;;5129874;27;19995;-82
2022/03/23 01:38:41;;;;;;;44.03;17.20;;;0.20;58.60;;;;;;5128370;27;20042;-83
2022/03/23 01:41:07;;;;;;;47.92;18.25;;;0.20;58.60;;;;;;5127228;27;20039;-82
2022/03/23 01:43:33;;;;;;;49.10;19.17;;;0.20;58.70;;;;;;5134476;27;20023;-83
2022/03/23 01:46:00;;;;;;;54.53;22.87;;;0.10;58.70;;;;;;5126910;27;20524;-82
2022/03/23 01:48:25;;;;;;;61.37;22.13;;;0.10;58.80;;;;;;5127586;27;20023;-82
2022/03/23 01:50:51;;;;;;;51.60;21.00;;;0.10;58.90;;;;;;5127483;27;20395;-83
2022/03/23 01:53:16;;;;;;;48.63;20.27;;;0.10;59.00;;;;;;5128705;27;20050;-83
2022/03/23 01:55:42;;;;;;;53.53;20.75;;;0.10;58.90;;;;;;5130586;27;20029;-82
2022/03/23 01:58:08;;;;;;;51.75;20.10;;;0.00;59.00;;;;;;5132855;27;20069;-82
2022/03/23 02:00:35;;;;;;;63.38;22.13;;;0.00;59.00;;;;;;5129676;27;20019;-82
2022/03/23 02:03:01;;;;;;;51.70;21.33;;;0.00;59.00;;;;;;5128129;27;20028;-82
2022/03/23 02:05:26;;;;;;;54.45;20.52;;;0.00;59.10;;;;;;5128841;27;20068;-82
2022/03/23 02:07:54;;;;;;;63.38;19.90;;;0.00;59.10;;;;;;5126908;27;20019;-83
2022/03/23 02:10:20;;;;;;;56.43;20.97;;;-3276.70;59.20;;;;;;5130337;27;20071;-82
2022/03/23 02:12:46;;;;;;;53.13;21.55;;;-3276.70;59.30;;;;;;5151876;27;20023;-82
2022/03/23 02:15:17;;;;;;;54.90;22.30;;;-3276.70;59.30;;;;;;5128460;27;20097;-82
2022/03/23 02:17:44;;;;;;;66.43;23.10;;;-3276.60;59.40;;;;;;5143390;27;20073;-82
2022/03/23 02:20:11;;;;;;;64.47;23.43;;;-3276.60;59.30;;;;;;5126894;27;20028;-82
2022/03/23 02:22:37;;;;;;;64.07;23.30;;;-3276.50;59.40;;;;;;5128474;27;20034;-82
2022/03/23 02:25:04;;;;;;;56.05;23.65;;;-3276.50;59.50;;;;;;5141357;27;20110;-82
2022/03/23 02:27:31;;;;;;;55.93;22.73;;;-3276.40;59.50;;;;;;5131194;27;20025;-82
2022/03/23 02:29:57;;;;;;;49.80;19.80;;;-3276.40;59.60;;;;;;5134692;27;20102;-83
2022/03/23 02:32:24;;;;;;;46.17;18.50;;;-3276.40;59.70;;;;;;5130697;27;20555;-82
2022/03/23 02:34:49;;;;;;;48.27;18.17;;;-3276.40;59.80;;;;;;5131279;27;20023;-82
2022/03/23 02:37:16;;;;;;;43.10;17.15;;;-3276.40;59.90;;;;;;5127274;27;20027;-82
2022/03/23 02:39:42;;;;;;;44.80;17.67;;;-3276.40;60.00;;;;;;5129826;27;20035;-82
2022/03/23 02:42:08;;;;;;;51.35;17.83;;;-3276.30;60.00;;;;;;5131739;27;20467;-82
2022/03/23 02:44:34;;;;;;;45.30;17.33;;;-3276.30;60.10;;;;;;5133460;27;20022;-82
2022/03/23 02:47:01;;;;;;;41.93;18.03;;;-3276.20;60.20;;;;;;5130828;27;20501;-81
2022/03/23 02:49:26;;;;;;;49.13;18.20;;;-3276.20;60.20;;;;;;5124823;27;20050;-82
2022/03/23 02:51:52;;;;;;;43.95;17.13;;;-3276.20;60.30;;;;;;5129897;27;20049;-82
2022/03/23 03:02:55;;;;;;;57.33;20.03;;;-3276.20;60.60;;;;;;5153164;27;20536;-82
2022/03/23 03:05:21;;;;;;;52.25;20.75;;;-3276.20;60.40;;;;;;5122100;27;20015;-83
2022/03/23 03:10:31;;;;;;;53.53;23.20;;;-3276.10;60.40;;;;;;5151188;27;20550;-83
2022/03/23 03:12:56;;;;;;;83.45;29.17;;;-3276.00;60.40;;;;;;5128746;27;20059;-83
2022/03/23 03:15:22;;;;;;;64.35;22.88;;;-3276.00;60.70;;;;;;5129713;27;20029;-83
2022/03/23 03:17:48;;;;;;;72.97;25.42;;;-3276.00;60.80;;;;;;5133816;27;20542;-82
2022/03/23 03:20:14;;;;;;;65.05;24.35;;;-3275.90;60.80;;;;;;5132915;27;20050;-82
2022/03/23 03:22:40;;;;;;;71.27;24.87;;;-3275.90;60.90;;;;;;5124712;27;20102;-82
2022/03/23 03:25:15;;;;;;;58.10;23.67;;;-3275.90;61.00;;;;;;5129355;27;20037;-82
2022/03/23 03:27:40;;;;;;;64.67;22.33;;;-3275.80;61.20;;;;;;5119947;27;20029;-82
2022/03/23 03:30:11;;;;;;;61.58;23.45;;;-3275.90;61.10;;;;;;5128911;27;20038;-82
2022/03/23 03:32:37;;;;;;;58.80;20.93;;;-3275.80;61.20;;;;;;5129374;27;20518;-82
2022/03/23 03:35:03;;;;;;;;;;;-3275.80;61.20;;;;;;5127254;27;20121;-82
2022/03/23 03:37:29;;;;;;;64.67;23.83;;;-3275.70;61.20;;;;;;5125681;27;19994;-82
2022/03/23 03:39:55;;;;;;;66.05;24.42;;;-3275.70;60.90;;;;;;5130766;27;20100;-82
2022/03/23 03:42:20;;;;;;;71.80;26.40;;;-3275.70;61.10;;;;;;5125613;27;20352;-82
2022/03/23 03:44:48;;;;;;;87.38;29.58;;;-3275.70;61.20;;;;;;5125400;27;20038;-82
2022/03/23 03:47:13;;;;;;;103.67;33.03;;;-3275.70;61.20;;;;;;5131456;27;20034;-81
2022/03/23 03:49:39;;;;;;;82.70;28.83;;;-3275.70;61.30;;;;;;5129748;27;20027;-83
2022/03/23 03:52:05;;;;;;;75.25;28.30;;;-3275.70;61.30;;;;;;5145297;27;20023;-82
2022/03/23 03:54:31;;;;;;;78.67;27.17;;;-3275.70;61.30;;;;;;5147928;27;20062;-81
2022/03/23 03:56:57;;;;;;;68.93;24.98;;;-3275.60;61.40;;;;;;5125062;27;20039;-82
2022/03/23 03:59:22;;;;;;;74.30;28.90;;;-3275.50;61.40;;;;;;5131966;27;20029;-82
2022/03/23 04:01:49;;;;;;;67.97;27.42;;;-3275.50;61.50;;;;;;5130535;27;20479;-82
2022/03/23 04:04:15;;;;;;;58.50;25.43;;;-3275.50;61.50;;;;;;5127526;27;20027;-82
2022/03/23 04:06:41;;;;;;;73.07;27.42;;;-3275.40;61.60;;;;;;5126257;27;20030;-82
2022/03/23 04:09:06;;;;;;;66.00;25.80;;;-3275.30;61.60;;;;;;5122850;27;20106;-82
2022/03/23 04:11:32;;;;;;;69.10;27.80;;;-3275.30;61.70;;;;;;5129464;27;20371;-82
2022/03/23 04:13:57;;;;;;;71.63;28.92;;;-3275.30;61.70;;;;;;5140096;27;20038;-82
2022/03/23 04:16:23;;;;;;;64.07;25.55;;;-3275.30;61.80;;;;;;5130745;27;20018;-83
2022/03/23 04:18:49;;;;;;;66.00;24.60;;;-3275.20;61.80;;;;;;5124979;27;20035;-82
2022/03/23 04:21:15;;;;;;;58.45;23.90;;;-3275.20;61.80;;;;;;5122290;27;20470;-83
2022/03/23 04:23:40;;;;;;;59.67;25.55;;;-3275.20;61.90;;;;;;5122811;27;20023;-82
2022/03/23 04:26:06;;;;;;;66.75;24.60;;;-3275.20;61.90;;;;;;5129781;27;20387;-83
2022/03/23 04:28:32;;;;;;;58.38;24.05;;;-3275.10;62.00;;;;;;5123791;27;20076;-83
2022/03/23 04:30:58;;;;;;;72.25;24.88;;;-3275.10;62.10;;;;;;5126472;27;20076;-82
2022/03/23 04:33:23;;;;;;;67.32;24.52;;;-3275.10;62.10;;;;;;5146377;27;20024;-82
2022/03/23 04:35:49;;;;;;;67.88;23.25;;;-3275.10;62.10;;;;;;5127233;27;20022;-82
2022/03/23 04:38:15;;;;;;;50.30;22.88;;;-3275.10;62.20;;;;;;5127353;27;20110;-82
2022/03/23 04:40:41;;;;;;;59.08;22.83;;;-3275.10;62.20;;;;;;5125950;27;20472;-82
2022/03/23 04:43:07;;;;;;;55.73;22.53;;;-3275.10;62.20;;;;;;5145950;27;20473;-82
2022/03/23 04:45:32;;;;;;;47.83;21.60;;;-3275.10;62.30;;;;;;5135989;27;20903;-82
2022/03/23 04:47:58;;;;;;;57.17;23.30;;;-3275.00;62.30;;;;;;5142704;27;20404;-82
2022/03/23 04:50:24;;;;;;;48.80;20.40;;;-3275.00;62.40;;;;;;5126319;27;20072;-82
2022/03/23 04:52:52;;;;;;;53.50;22.55;;;-3275.00;62.40;;;;;;5127455;27;20468;-82
2022/03/23 04:55:17;;;;;;;47.10;19.57;;;-3275.00;62.40;;;;;;5130245;27;20480;-81
2022/03/23 04:57:43;;;;;;;57.22;21.63;;;-3275.00;62.30;;;;;;5133599;27;20054;-82
2022/03/23 05:00:14;;;;;;;57.30;21.92;;;-3275.00;62.30;;;;;;5132093;27;20041;-83
2022/03/23 05:02:44;;;;;;;52.70;21.07;;;-3274.90;62.40;;;;;;5131152;27;20023;-81
2022/03/23 05:05:13;;;;;;;62.60;23.53;;;-3274.90;62.30;;;;;;5132289;27;20066;-81
2022/03/23 05:07:40;;;;;;;63.17;23.77;;;-3274.90;62.40;;;;;;5127490;27;20122;-83
2022/03/23 05:10:08;;;;;;;65.77;24.77;;;-3275.00;62.40;;;;;;5129707;27;20477;-82
2022/03/23 05:12:37;;;;;;;66.73;23.77;;;-3275.00;62.40;;;;;;5144105;27;20031;-82
2022/03/23 05:15:04;;;;;;;60.33;22.63;;;-3275.00;62.40;;;;;;5135116;27;20031;-82
2022/03/23 05:17:30;;;;;;;63.73;23.27;;;-3275.00;62.50;;;;;;5124740;27;20160;-83
2022/03/23 05:19:56;;;;;;;56.47;21.65;;;-3275.00;62.40;;;;;;5151834;27;20083;-83
2022/03/23 05:22:21;;;;;;;61.17;23.23;;;-3275.10;62.40;;;;;;5149213;27;20072;-83
2022/03/23 05:24:47;;;;;;;58.03;25.17;;;-3275.10;62.40;;;;;;5135786;27;20060;-83
2022/03/23 05:27:12;;;;;;;64.13;22.60;;;-3275.10;62.30;;;;;;5127832;27;20029;-82
2022/03/23 05:29:38;;;;;;;63.15;25.95;;;-3275.20;62.30;;;;;;5135108;27;20022;-85
2022/03/23 05:32:04;;;;;;;60.40;23.80;;;-3275.20;62.30;;;;;;5134535;27;20015;-83
2022/03/23 05:34:30;;;;;;;;;;;-3275.30;62.40;;;;;;5152320;27;20451;-81
2022/03/23 05:36:55;;;;;;;57.97;22.50;;;-3275.40;62.40;;;;;;5141648;27;19911;-81
2022/03/23 05:39:21;;;;;;;58.35;23.42;;;-3275.50;61.90;;;;;;5131990;27;20031;-81
2022/03/23 05:41:46;;;;;;;77.00;25.60;;;-3275.60;62.00;;;;;;5121330;27;20023;-82
2022/03/23 05:44:12;;;;;;;50.65;22.63;;;-3275.70;62.10;;;;;;5127352;27;20033;-82
2022/03/23 05:46:38;;;;;;;57.85;23.65;;;-3275.70;62.20;;;;;;5141956;27;20022;-81
2022/03/23 05:49:04;;;;;;;52.67;22.85;;;-3275.90;62.20;;;;;;5141372;27;20041;-82
2022/03/23 05:51:30;;;;;;;45.28;20.90;;;-3276.10;62.20;;;;;;5142024;27;20023;-81
2022/03/23 05:53:55;;;;;;;51.47;20.20;;;-3276.20;62.30;;;;;;5141531;27;20026;-80
2022/03/23 05:56:21;;;;;;;45.55;19.67;;;-3276.30;62.30;;;;;;5141344;27;20023;-80
2022/03/23 05:58:47;;;;;;;45.20;19.02;;;-3276.50;62.30;;;;;;5136713;27;20027;-78
2022/03/23 06:01:13;;;;;;;58.60;23.05;;;-3276.60;62.30;;;;;;5133811;27;20027;-81
2022/03/23 06:03:38;;;;;;;73.38;25.88;;;0.00;62.30;;;;;;5124457;27;20030;-82
2022/03/23 06:06:04;;;;;;;71.15;27.02;;;0.10;62.40;;;;;;5120306;27;20101;-81
2022/03/23 06:08:29;;;;;;;65.65;24.95;;;0.30;62.60;;;;;;5132858;27;20503;-82
2022/03/23 06:10:55;;;;;;;54.38;25.10;;;0.40;62.50;;;;;;5120272;27;20491;-82
2022/03/23 06:13:21;;;;;;;66.63;26.02;;;0.60;62.50;;;;;;5138109;27;20023;-81
2022/03/23 06:15:46;;;;;;;69.50;27.38;;;0.70;62.50;;;;;;5140051;27;20042;-82
2022/03/23 06:18:12;;;;;;;73.03;26.98;;;0.90;62.40;;;;;;5140257;27;20498;-82
2022/03/23 06:20:38;;;;;;;69.38;29.67;;;1.10;62.30;;;;;;5137194;27;20056;-81
2022/03/23 06:23:05;;;;;;;79.50;29.77;;;1.20;62.20;;;;;;5126732;27;20026;-82
2022/03/23 06:25:31;;;;;;;77.83;31.20;;;1.30;62.30;;;;;;5136464;27;20011;-84
2022/03/23 06:27:57;;;;;;;72.07;29.30;;;1.40;62.20;;;;;;5131903;27;20022;-82
2022/03/23 06:30:22;;;;;;;81.53;31.83;;;1.60;62.20;;;;;;5143647;27;20034;-80
2022/03/23 06:32:48;;;;;;;71.28;28.90;;;1.70;62.10;;;;;;5120736;27;20023;-82
2022/03/23 06:35:16;;;;;;;75.90;29.08;;;1.90;62.00;;;;;;5149040;27;20023;-83
2022/03/23 06:37:41;;;;;;;81.20;29.13;;;2.00;61.90;;;;;;5135178;27;20467;-83
2022/03/23 06:40:07;;;;;;;75.57;29.27;;;2.20;61.80;;;;;;5151499;27;20055;-82
2022/03/23 06:42:33;;;;;;;72.40;28.73;;;2.30;61.80;;;;;;5145201;27;20388;-83
2022/03/23 06:45:01;;;;;;;81.82;30.05;;;2.50;61.60;;;;;;5124479;27;20042;-82
2022/03/23 06:47:27;;;;;;;81.43;29.93;;;2.60;61.50;;;;;;5129247;27;20110;-83
2022/03/23 06:49:52;;;;;;;67.13;28.10;;;2.80;61.40;;;;;;5124768;27;20051;-81
2022/03/23 06:52:18;;;;;;;74.43;28.98;;;3.00;61.30;;;;;;5121706;27;20023;-80
2022/03/23 06:54:43;;;;;;;71.20;29.17;;;3.10;61.30;;;;;;5131175;27;20467;-84
2022/03/23 06:57:09;;;;;;;60.38;26.63;;;3.30;61.10;;;;;;5131003;27;20099;-82
2022/03/23 06:59:35;;;;;;;55.72;23.88;;;3.50;60.90;;;;;;5127973;27;20028;-83
2022/03/23 07:02:00;;;;;;;65.70;28.85;;;3.70;60.80;;;;;;5121589;27;20065;-82
2022/03/23 07:04:26;;;;;;;80.85;30.50;;;3.80;60.60;;;;;;5130508;27;20049;-85
2022/03/23 07:06:52;;;;;;;58.03;27.00;;;4.00;60.40;;;;;;5129952;27;20015;-81
2022/03/23 07:09:34;;;;;;;60.57;26.73;;;4.30;60.30;;;;;;5131530;27;20015;-82
2022/03/23 07:12:07;;;;;;;65.87;23.83;;;4.40;60.10;;;;;;5127593;27;20038;-83
2022/03/23 07:14:35;;;;;;;96.47;38.13;;;4.60;59.80;;;;;;5121100;27;20055;-82
2022/03/23 07:17:01;;;;;;;59.23;25.73;;;4.90;59.60;;;;;;5131704;27;20118;-82
2022/03/23 07:19:27;;;;;;;60.28;24.30;;;5.10;59.50;;;;;;5128141;27;20506;-81
2022/03/23 07:21:54;;;;;;;70.20;28.83;;;5.30;59.20;;;;;;5125775;27;20058;-81
2022/03/23 07:24:20;;;;;;;53.53;25.13;;;5.50;58.70;;;;;;5124110;27;20011;-82
2022/03/23 07:26:45;;;;;;;117.45;42.15;;;5.70;58.40;;;;;;5123638;27;20501;-82
2022/03/23 07:29:11;;;;;;;62.63;29.20;;;5.80;58.00;;;;;;5120802;27;20045;-82
2022/03/23 07:31:37;;;;;;;66.50;27.00;;;6.00;57.60;;;;;;5118202;27;20023;-82
2022/03/23 07:34:04;;;;;;;63.97;24.67;;;6.20;57.20;;;;;;5121173;27;20026;-82
2022/03/23 07:36:30;;;;;;;69.00;28.57;;;6.30;56.90;;;;;;5120470;27;20102;-83
2022/03/23 07:38:56;;;;;;;59.70;27.35;;;6.50;56.60;;;;;;5133670;27;20483;-84
2022/03/23 07:41:22;;;;;;;61.72;26.52;;;6.70;56.30;;;;;;5124844;27;20073;-81
2022/03/23 07:43:48;;;;;;;68.25;26.67;;;6.90;56.10;;;;;;5118326;27;20049;-83
2022/03/23 07:46:14;;;;;;;65.40;28.67;;;7.10;55.80;;;;;;5126555;27;20015;-84
2022/03/23 07:48:40;;;;;;;66.43;28.73;;;7.20;55.40;;;;;;5125408;27;20023;-83
2022/03/23 07:51:06;;;;;;;65.07;28.55;;;7.30;55.10;;;;;;5123755;27;20078;-83
2022/03/23 07:53:31;;;;;;;71.72;28.67;;;7.50;54.70;;;;;;5132781;27;20075;-83
2022/03/23 07:55:57;;;;;;;71.70;30.33;;;7.70;54.40;;;;;;5129280;27;20041;-83
2022/03/23 07:58:23;;;;;;;73.30;29.30;;;7.80;54.10;;;;;;5121264;27;20111;-83
2022/03/23 08:00:49;;;;;;;;;;;8.00;53.70;;;;;;5124913;27;20007;-83
2022/03/23 08:03:14;;;;;;;66.33;29.30;;;8.20;53.50;;;;;;5122304;27;19995;-82
2022/03/23 08:05:43;;;;;;;74.25;31.48;;;8.40;53.00;;;;;;5117183;27;20026;-82
2022/03/23 08:08:10;;;;;;;72.80;31.40;;;8.50;52.70;;;;;;5128042;27;20448;-82
2022/03/23 08:10:36;;;;;;;;;;;8.70;52.50;;;;;;5120518;27;20048;-82
2022/03/23 08:13:02;;;;;;;65.33;28.37;;;8.80;52.30;;;;;;5141501;27;19899;-81
2022/03/23 08:15:29;;;;;;;68.90;30.07;;;9.10;51.70;;;;;;5139457;27;20379;-82
2022/03/23 08:17:56;;;;;;;69.07;27.97;;;9.20;51.30;;;;;;5143538;27;20520;-83
2022/03/23 08:20:33;;;;;;;63.87;28.80;;;9.40;50.90;;;;;;5122365;27;20015;-82
2022/03/23 08:23:00;;;;;;;55.00;27.20;;;9.50;50.40;;;;;;5132370;27;20023;-83
2022/03/23 08:25:26;;;;;;;42.63;18.87;;;9.80;49.90;;;;;;5146826;27;20036;-83
2022/03/23 08:27:54;;;;;;;46.27;20.17;;;10.00;48.60;;;;;;5123177;27;20090;-82
2022/03/23 08:30:19;;;;;;;46.83;22.23;;;10.20;47.60;;;;;;5133898;27;20019;-82
2022/03/23 08:32:45;;;;;;;40.92;20.80;;;10.40;46.90;;;;;;5150615;27;20042;-82
2022/03/23 08:35:10;;;;;;;44.55;19.92;;;10.50;46.40;;;;;;5124302;27;20034;-82
2022/03/23 08:37:38;;;;;;;40.50;20.27;;;10.80;45.70;;;;;;5125496;27;20071;-82
2022/03/23 08:40:06;;;;;;;41.45;19.95;;;10.90;44.90;;;;;;5117468;27;20044;-83
2022/03/23 08:42:32;;;;;;;43.95;20.80;;;11.10;44.50;;;;;;5106424;28;20031;-83
2022/03/23 08:44:57;;;;;;;50.90;22.85;;;11.20;44.20;;;;;;5094607;28;20101;-82
2022/03/23 08:47:23;;;;;;;;;;;11.40;43.80;;;;;;5088290;28;20031;-83
2022/03/23 08:49:49;;;;;;;52.45;20.80;;;11.60;43.80;;;;;;5096291;28;20010;-83
2022/03/23 08:52:15;;;;;;;37.45;19.05;;;11.80;43.20;;;;;;5108270;28;20073;-81
2022/03/23 08:54:41;;;;;;;37.28;18.40;;;11.80;42.70;;;;;;5093976;28;20032;-83
2022/03/23 08:57:06;;;;;;;;;;;12.00;42.30;;;;;;5093322;28;20031;-82
2022/03/23 08:59:32;;;;;;;48.78;17.88;;;12.10;42.40;;;;;;5077408;28;20356;-82
2022/03/23 09:01:58;;;;;;;;;;;12.30;41.80;;;;;;5107482;28;20425;-82
2022/03/23 09:04:23;;;;;;;38.53;17.65;;;12.40;41.90;;;;;;5095767;28;19908;-82
2022/03/23 09:06:49;;;;;;;;;;;12.50;41.40;;;;;;5103231;28;20550;-82
2022/03/23 09:09:14;;;;;;;40.65;17.40;;;12.70;41.50;;;;;;5103962;28;19915;-82
2022/03/23 09:11:43;;;;;;;;;;;12.80;41.00;;;;;;5110514;28;20068;-82
2022/03/23 09:14:12;;;;;;;36.22;17.27;;;12.90;41.10;;;;;;5080540;28;19908;-82
2022/03/23 09:16:39;;;;;;;35.55;16.65;;;13.10;40.30;;;;;;5103050;28;20036;-81
2022/03/23 09:19:05;;;;;;;38.65;17.58;;;13.20;39.70;;;;;;5095607;28;20050;-83
2022/03/23 09:21:32;;;;;;;38.72;18.20;;;13.30;39.20;;;;;;5097405;28;20054;-81
2022/03/23 09:23:57;;;;;;;39.90;18.38;;;13.40;38.80;;;;;;5096929;28;20039;-83
2022/03/23 09:26:23;;;;;;;;;;;13.60;38.50;;;;;;5085301;28;20410;-81
2022/03/23 09:28:51;;;;;;;35.90;18.08;;;13.80;38.50;;;;;;5087059;28;20010;-83
2022/03/23 09:31:17;;;;;;;33.58;17.40;;;13.90;38.20;;;;;;5079177;28;20028;-83
2022/03/23 09:33:43;;;;;;;;;;;14.10;37.90;;;;;;5085853;28;20540;-83
2022/03/23 09:37:47;;;;;;;36.20;17.95;;;14.30;38.10;;;;;;5093802;28;19904;-83
2022/03/23 09:38:54;;;;;;;32.92;16.92;;;14.40;37.50;;;;;;5082251;28;20430;-83
2022/03/23 09:41:20;;;;;;;;;;;14.50;36.90;;;;;;5114348;27;20047;-83
2022/03/23 09:43:46;;;;;;;29.98;14.10;;;14.70;37.10;;;;;;5120048;27;19908;-83
2022/03/23 09:46:12;;;;;;;29.58;14.82;;;14.90;36.40;;;;;;5120449;27;20023;-83
2022/03/23 09:48:38;;;;;;;;;;;15.00;35.60;;;;;;5119169;27;20422;-83
2022/03/23 09:51:05;;;;;;;32.05;15.32;;;15.30;35.70;;;;;;5136978;27;19943;-83
2022/03/23 09:53:33;;;;;;;29.88;14.85;;;15.40;35.00;;;;;;5118223;27;20023;-82
2022/03/23 09:55:58;;;;;;;29.38;15.05;;;15.60;34.30;;;;;;5118113;27;20031;-83
2022/03/23 09:58:24;;;;;;;;;;;15.80;34.00;;;;;;5136778;27;20034;-83
2022/03/23 10:00:50;;;;;;;29.00;14.48;;;16.00;34.20;;;;;;5118481;27;19998;-82
2022/03/23 10:03:34;;;;;;;;;;;16.20;33.30;;;;;;5118504;27;20008;-81
2022/03/23 10:06:44;;;;;;;22.35;12.80;;;16.40;33.60;;;;;;5117901;27;19914;-83
2022/03/23 10:09:25;;;;;;;26.85;12.18;;;16.70;32.40;;;;;;5117588;27;20041;-83
2022/03/23 10:12:42;;;;;;;24.88;12.35;;;16.80;31.80;;;;;;5117653;27;20027;-82
2022/03/23 10:15:45;;;;;;;24.85;11.05;;;17.10;31.50;;;;;;5116457;27;20090;-81
2022/03/23 10:18:34;;;;;;;26.55;13.90;;;17.40;30.30;;;;;;5116648;27;20054;-82
2022/03/23 10:20:59;;;;;;;25.58;13.63;;;17.90;30.50;;;;;;5116165;27;20476;-79
2022/03/23 10:23:26;;;;;;;22.17;12.98;;;19.20;28.70;;;;;;5118061;27;20030;-79
2022/03/23 10:25:51;;;;;;;31.65;13.23;;;20.90;27.00;;;;;;5118067;27;20140;-79
2022/03/23 10:28:18;;;;;;;21.52;12.48;;;22.90;25.00;;;;;;5111131;27;20102;-79
2022/03/23 10:30:45;;;;;;;27.38;12.73;;;24.80;23.30;;;;;;5117647;27;20023;-78
2022/03/23 10:33:19;;;;;;;23.60;13.27;;;26.70;21.60;;;;;;5117625;27;20027;-79
2022/03/23 10:35:45;;;;;;;20.55;12.07;;;28.40;20.20;;;;;;5117944;27;20487;-80
2022/03/23 10:38:16;;;;;;;18.90;12.07;;;30.10;19.20;;;;;;5117294;27;20034;-79
2022/03/23 10:40:43;;;;;;;26.15;13.00;;;31.60;17.90;;;;;;5135934;27;20039;-79
2022/03/23 10:43:15;;;;;;;20.00;12.45;;;32.70;16.90;;;;;;5117398;27;20057;-80
2022/03/23 10:45:41;;;;;;;17.35;9.50;;;33.90;16.10;;;;;;5117111;27;20076;-82
2022/03/23 10:48:19;;;;;;;16.13;11.10;;;35.10;14.80;;;;;;5117199;27;20463;-83
2022/03/23 10:50:58;;;;;;;22.45;12.43;;;36.20;14.00;;;;;;5136240;27;20019;-83
2022/03/23 10:53:31;;;;;;;18.52;11.45;;;37.10;13.70;;;;;;5117234;27;20039;-82
2022/03/23 10:55:57;;;;;;;20.55;10.55;;;37.80;12.80;;;;;;5117475;27;20027;-82
2022/03/23 10:58:25;;;;;;;14.73;9.45;;;38.50;12.30;;;;;;5116961;27;20482;-81
2022/03/23 11:00:54;;;;;;;15.20;9.27;;;39.30;11.50;;;;;;5116848;27;20023;-82
2022/03/23 11:03:19;;;;;;;14.68;8.63;;;39.90;10.80;;;;;;5117163;27;20023;-83
2022/03/23 11:05:48;;;;;;;15.50;8.98;;;40.40;10.20;;;;;;5117494;27;20057;-82
2022/03/23 11:08:20;;;;;;;9.90;6.82;;;41.00;9.90;;;;;;5116832;27;20026;-81
2022/03/23 11:16:34;;;;;;;4.70;2.83;;;43.00;8.60;;;;;;5135418;27;20564;-81
2022/03/23 11:19:12;;;;;;;3.75;2.00;;;43.20;7.80;;;;;;5117104;27;20023;-83
2022/03/23 11:21:58;;;;;;;8.57;4.30;;;43.50;7.10;;;;;;5110048;27;20035;-83
2022/03/23 11:24:29;;;;;;;9.98;4.20;;;43.90;7.30;;;;;;5117126;27;20089;-82
2022/03/23 11:26:56;;;;;;;7.55;3.72;;;44.30;7.20;;;;;;5116838;27;20122;-82
2022/03/23 11:29:22;;;;;;;5.72;3.10;;;44.80;7.40;;;;;;5135690;27;20127;-82
2022/03/23 11:31:49;;;;;;;9.68;6.50;;;45.20;6.80;;;;;;5107802;27;20023;-83
2022/03/23 11:34:19;;;;;;;20.80;9.38;;;45.70;7.10;;;;;;5117282;27;20052;-82
2022/03/23 11:36:47;;;;;;;11.05;7.10;;;46.20;7.20;;;;;;5116991;27;20016;-83
2022/03/23 11:39:13;;;;;;;9.07;6.00;;;46.20;7.00;;;;;;5116791;27;20068;-81
2022/03/23 11:41:41;;;;;;;10.07;5.47;;;46.20;7.10;;;;;;5116748;27;20015;-81
2022/03/23 11:44:07;;;;;;;10.13;5.70;;;46.60;7.10;;;;;;5112073;27;20026;-81
2022/03/23 11:46:32;;;;;;;7.82;6.03;;;47.10;6.90;;;;;;5133988;27;20027;-80
2022/03/23 11:49:49;;;;;;;14.52;6.88;;;47.30;6.50;;;;;;5133657;27;20083;-80
2022/03/23 11:52:51;;;;;;;8.55;5.10;;;47.50;7.00;;;;;;5039432;28;20029;-80
2022/03/23 11:55:37;;;;;;;8.82;5.55;;;47.80;6.70;;;;;;5044235;28;20033;-80
2022/03/23 11:58:15;;;;;;;8.57;5.50;;;48.00;6.60;;;;;;5101854;27;20482;-81
2022/03/23 12:01:09;;;;;;;7.93;4.90;;;48.30;6.30;;;;;;5124117;27;20034;-80
2022/03/23 12:03:40;;;;;;;6.75;4.63;;;48.40;6.40;;;;;;5104615;27;20031;-80
2022/03/23 12:06:14;;;;;;;7.68;4.90;;;48.30;6.50;;;;;;5131015;27;20122;-80
2022/03/23 12:09:00;;;;;;;12.68;7.25;;;48.30;6.40;;;;;;5115970;27;21797;-80
2022/03/23 12:11:43;;;;;;;10.45;6.93;;;48.50;6.60;;;;;;5116002;27;20029;-80
2022/03/23 12:14:31;;;;;;;13.15;8.70;;;48.20;6.50;;;;;;5116146;27;20019;-80
2022/03/23 12:16:57;;;;;;;10.27;7.85;;;47.70;6.70;;;;;;5116735;27;20033;-81
2022/03/23 12:19:31;;;;;;;9.05;6.88;;;47.50;6.80;;;;;;5112833;27;20333;-80
2022/03/23 12:22:06;;;;;;;13.02;7.05;;;47.70;6.70;;;;;;5116540;27;20069;-80
2022/03/23 12:24:49;;;;;;;10.82;7.00;;;47.80;6.70;;;;;;5115274;27;20042;-80
2022/03/23 12:27:32;;;;;;;10.07;7.78;;;47.60;6.60;;;;;;5115737;27;20039;-81
2022/03/23 12:30:01;;;;;;;10.88;8.18;;;47.40;6.50;;;;;;5113639;27;20080;-81
2022/03/23 12:32:39;;;;;;;11.43;8.10;;;47.00;6.40;;;;;;5112080;27;20012;-80
2022/03/23 12:35:06;;;;;;;9.75;7.72;;;46.60;6.50;;;;;;5114793;27;20444;-81
2022/03/23 12:37:38;;;;;;;12.18;7.30;;;46.40;6.90;;;;;;5115031;28;20026;-82
2022/03/23 12:40:13;;;;;;;14.15;7.85;;;46.50;6.80;;;;;;5112549;28;20050;-83
2022/03/23 12:42:43;;;;;;;10.68;6.75;;;46.70;6.70;;;;;;5101373;28;20020;-82
2022/03/23 12:45:32;;;;;;;9.90;7.15;;;46.70;6.60;;;;;;5106072;28;20028;-82
2022/03/23 12:57:49;;;;;;;9.82;6.60;;;47.00;6.50;;;;;;5111720;28;20063;-83
2022/03/23 12:59:37;;;;;;;8.75;6.50;;;48.00;6.70;;;;;;5078332;28;20040;-82
2022/03/23 13:02:19;;;;;;;9.43;6.68;;;48.20;6.70;;;;;;5093640;28;20059;-82